CMA CGM Arkansas — 9HA3973 — position and weather

sailwx.info

Track history (hours):
 
Tides and Currents Weather Stations Pressure Air Temp Water Temp Dewpoint Dewpoint Depression Visibility Wind Speed Wind Dir Waves Ship Positions

CMA CGM Arkansas

Last reported at 2017-Dec-10 16:21 UTC. Time now 2017-Dec-11 00:26 UTC.
Position N 40°56' E 028°42'.

Length 300 m; draft 12.2 m.

Type: Ship (hazmat cat A). MMSI: 256644000.

Date/timePositionNaut miles runAvg speedWind from/ knotsBaromVisibWave heightAir tempDewpointWater temp
2017-Dec-10 16:21N 40°56' E 028°42'3 4.0
2017-Dec-10 15:40N 40°53' E 028°42'8 5.6
2017-Dec-10 14:15N 40°45' E 028°45'2 8.2
2017-Dec-10 13:58N 40°45' E 028°48'3 5.7
2017-Dec-10 13:30N 40°46' E 028°51'0 0.5
2017-Dec-10 13:00N 40°46' E 028°51'0 0.5
2017-Dec-10 12:23N 40°46' E 028°51'0 0.5
2017-Dec-10 11:57N 40°45' E 028°51'0 0.4
2017-Dec-10 11:18N 40°45' E 028°50'0 0.7
2017-Dec-10 11:00N 40°45' E 028°50'0 0.8
2017-Dec-10 10:28N 40°46' E 028°50'0 0.7
2017-Dec-10 09:59N 40°45' E 028°49'1 1.0
2017-Dec-10 09:24N 40°45' E 028°49'1 1.3
2017-Dec-10 09:00N 40°45' E 028°48'1 1.6
2017-Dec-10 08:30N 40°44' E 028°47'1 1.7
2017-Dec-10 08:00N 40°44' E 028°46'7 9.1
2017-Dec-10 07:15N 40°46' E 028°37'3 0.7
2017-Dec-10 03:24N 40°44' E 028°39'0 0.3
2017-Dec-10 02:54N 40°44' E 028°39'1 1.8
2017-Dec-10 02:28N 40°45' E 028°39'3 5.8
2017-Dec-10 02:00N 40°47' E 028°38'4 7.9
2017-Dec-10 01:29N 40°51' E 028°36'5 8.6
2017-Dec-10 00:52N 40°56' E 028°37'1 0.1
2017-Dec-09 10:40N 40°56' E 028°38'1 5.7
2017-Dec-09 10:26N 40°55' E 028°39'410.2
2017-Dec-09 10:00N 40°52' E 028°43'814.7
2017-Dec-09 09:29N 40°47' E 028°51'917.6
2017-Dec-09 09:00N 40°46' E 029°02'917.7
2017-Dec-09 08:30N 40°45' E 029°14'246 6.7
2017-Dec-07 19:37N 38°21' E 024°55'219.0
2017-Dec-07 19:30N 38°19' E 024°54'2218.9
2017-Dec-07 18:20N 38°00' E 024°39'619.1
2017-Dec-07 18:00N 37°55' E 024°34'918.6
2017-Dec-07 17:30N 37°48' E 024°26'1019.7
2017-Dec-07 17:00N 37°43' E 024°15'918.3
2017-Dec-07 16:30N 37°37' E 024°07'1019.9
2017-Dec-07 16:00N 37°37' E 023°54'918.1
2017-Dec-07 15:30N 37°40' E 023°43'2 3.1
2017-Dec-07 15:01N 37°41' E 023°42'1019.2
2017-Dec-07 14:31N 37°50' E 023°37'713.2
2017-Dec-07 14:01N 37°56' E 023°36'1 1.9
2017-Dec-07 13:28N 37°57' E 023°36'0 0.0
2017-Dec-07 12:58N 37°57' E 023°36'0 0.0
2017-Dec-07 12:28N 37°57' E 023°36'0 0.0
2017-Dec-07 11:58N 37°57' E 023°36'0 0.0
2017-Dec-07 11:28N 37°57' E 023°36'0 0.0
2017-Dec-07 10:58N 37°57' E 023°36'0 0.0
2017-Dec-07 10:28N 37°57' E 023°36'0 0.0
2017-Dec-07 09:58N 37°57' E 023°36'0 0.0
2017-Dec-07 09:28N 37°57' E 023°36'0 0.0
2017-Dec-07 08:58N 37°57' E 023°36'0 0.0
2017-Dec-07 08:28N 37°57' E 023°36'0 0.0
2017-Dec-07 07:58N 37°57' E 023°36'0 0.0
2017-Dec-07 07:28N 37°57' E 023°36'0 0.0
2017-Dec-07 06:58N 37°57' E 023°36'0 0.0
2017-Dec-07 06:28N 37°57' E 023°36'0 0.0
2017-Dec-07 05:58N 37°57' E 023°36'0 0.0
2017-Dec-07 05:28N 37°57' E 023°36'0 0.0
2017-Dec-07 04:58N 37°57' E 023°36'0 0.0
2017-Dec-07 04:28N 37°57' E 023°36'0 0.0
2017-Dec-07 03:58N 37°57' E 023°36'0 0.0
2017-Dec-07 03:28N 37°57' E 023°36'0 0.0
2017-Dec-07 02:58N 37°57' E 023°36'0 0.0
2017-Dec-07 02:28N 37°57' E 023°36'0 0.0
2017-Dec-07 01:58N 37°57' E 023°36'0 0.0
2017-Dec-07 01:28N 37°57' E 023°36'0 0.0
2017-Dec-07 00:58N 37°57' E 023°36'0 0.0
2017-Dec-07 00:28N 37°57' E 023°36'0 0.0
2017-Dec-06 23:58N 37°57' E 023°36'0 0.0
2017-Dec-06 23:28N 37°57' E 023°36'0 0.0
2017-Dec-06 22:58N 37°57' E 023°36'0 0.0
2017-Dec-06 22:28N 37°57' E 023°36'0 0.0
2017-Dec-06 21:58N 37°57' E 023°36'0 0.0
2017-Dec-06 21:28N 37°57' E 023°36'0 0.0
2017-Dec-06 20:58N 37°57' E 023°36'  
2017-Dec-02 16:05N 32°35' E 033°35'  
Track history (hours):
 
Tides and Currents Weather Stations Pressure Air Temp Water Temp Dewpoint Dewpoint Depression Visibility Wind Speed Wind Dir Waves Ship Positions

CMA CGM Arkansas

Last reported at 2017-Dec-10 16:21 UTC. Time now 2017-Dec-11 00:26 UTC.
Position N 40°56' E 028°42'.

Length 300 m; draft 12.2 m.

Type: Ship (hazmat cat A). MMSI: 256644000.

Date/timePositionNaut miles runAvg speedWind from/ knotsBaromVisibWave heightAir tempDewpointWater temp
2017-Dec-10 16:21N 40°56' E 028°42'3 4.0
2017-Dec-10 15:40N 40°53' E 028°42'8 5.6
2017-Dec-10 14:15N 40°45' E 028°45'2 8.2
2017-Dec-10 13:58N 40°45' E 028°48'3 5.7
2017-Dec-10 13:30N 40°46' E 028°51'0 0.5
2017-Dec-10 13:00N 40°46' E 028°51'0 0.5
2017-Dec-10 12:23N 40°46' E 028°51'0 0.5
2017-Dec-10 11:57N 40°45' E 028°51'0 0.4
2017-Dec-10 11:18N 40°45' E 028°50'0 0.7
2017-Dec-10 11:00N 40°45' E 028°50'0 0.8
2017-Dec-10 10:28N 40°46' E 028°50'0 0.7
2017-Dec-10 09:59N 40°45' E 028°49'1 1.0
2017-Dec-10 09:24N 40°45' E 028°49'1 1.3
2017-Dec-10 09:00N 40°45' E 028°48'1 1.6
2017-Dec-10 08:30N 40°44' E 028°47'1 1.7
2017-Dec-10 08:00N 40°44' E 028°46'7 9.1
2017-Dec-10 07:15N 40°46' E 028°37'3 0.7
2017-Dec-10 03:24N 40°44' E 028°39'0 0.3
2017-Dec-10 02:54N 40°44' E 028°39'1 1.8
2017-Dec-10 02:28N 40°45' E 028°39'3 5.8
2017-Dec-10 02:00N 40°47' E 028°38'4 7.9
2017-Dec-10 01:29N 40°51' E 028°36'5 8.6
2017-Dec-10 00:52N 40°56' E 028°37'1 0.1
2017-Dec-09 10:40N 40°56' E 028°38'1 5.7
2017-Dec-09 10:26N 40°55' E 028°39'410.2
2017-Dec-09 10:00N 40°52' E 028°43'814.7
2017-Dec-09 09:29N 40°47' E 028°51'917.6
2017-Dec-09 09:00N 40°46' E 029°02'917.7
2017-Dec-09 08:30N 40°45' E 029°14'246 6.7
2017-Dec-07 19:37N 38°21' E 024°55'219.0
2017-Dec-07 19:30N 38°19' E 024°54'2218.9
2017-Dec-07 18:20N 38°00' E 024°39'619.1
2017-Dec-07 18:00N 37°55' E 024°34'918.6
2017-Dec-07 17:30N 37°48' E 024°26'1019.7
2017-Dec-07 17:00N 37°43' E 024°15'918.3
2017-Dec-07 16:30N 37°37' E 024°07'1019.9
2017-Dec-07 16:00N 37°37' E 023°54'918.1
2017-Dec-07 15:30N 37°40' E 023°43'2 3.1
2017-Dec-07 15:01N 37°41' E 023°42'1019.2
2017-Dec-07 14:31N 37°50' E 023°37'713.2
2017-Dec-07 14:01N 37°56' E 023°36'1 1.9
2017-Dec-07 13:28N 37°57' E 023°36'0 0.0
2017-Dec-07 12:58N 37°57' E 023°36'0 0.0
2017-Dec-07 12:28N 37°57' E 023°36'0 0.0
2017-Dec-07 11:58N 37°57' E 023°36'0 0.0
2017-Dec-07 11:28N 37°57' E 023°36'0 0.0
2017-Dec-07 10:58N 37°57' E 023°36'0 0.0
2017-Dec-07 10:28N 37°57' E 023°36'0 0.0
2017-Dec-07 09:58N 37°57' E 023°36'0 0.0
2017-Dec-07 09:28N 37°57' E 023°36'0 0.0
2017-Dec-07 08:58N 37°57' E 023°36'0 0.0
2017-Dec-07 08:28N 37°57' E 023°36'0 0.0
2017-Dec-07 07:58N 37°57' E 023°36'0 0.0
2017-Dec-07 07:28N 37°57' E 023°36'0 0.0
2017-Dec-07 06:58N 37°57' E 023°36'0 0.0
2017-Dec-07 06:28N 37°57' E 023°36'0 0.0
2017-Dec-07 05:58N 37°57' E 023°36'0 0.0
2017-Dec-07 05:28N 37°57' E 023°36'0 0.0
2017-Dec-07 04:58N 37°57' E 023°36'0 0.0
2017-Dec-07 04:28N 37°57' E 023°36'0 0.0
2017-Dec-07 03:58N 37°57' E 023°36'0 0.0
2017-Dec-07 03:28N 37°57' E 023°36'0 0.0
2017-Dec-07 02:58N 37°57' E 023°36'0 0.0
2017-Dec-07 02:28N 37°57' E 023°36'0 0.0
2017-Dec-07 01:58N 37°57' E 023°36'0 0.0
2017-Dec-07 01:28N 37°57' E 023°36'0 0.0
2017-Dec-07 00:58N 37°57' E 023°36'0 0.0
2017-Dec-07 00:28N 37°57' E 023°36'0 0.0
2017-Dec-06 23:58N 37°57' E 023°36'0 0.0
2017-Dec-06 23:28N 37°57' E 023°36'0 0.0
2017-Dec-06 22:58N 37°57' E 023°36'0 0.0
2017-Dec-06 22:28N 37°57' E 023°36'0 0.0
2017-Dec-06 21:58N 37°57' E 023°36'0 0.0
2017-Dec-06 21:28N 37°57' E 023°36'0 0.0
2017-Dec-06 20:58N 37°57' E 023°36'  
2017-Dec-02 16:05N 32°35' E 033°35'  

Dump ship's entire track history